Time;durP1;ratioP1;P1;durP2;ratioP2;P2;SDS_P1;SDS_P2;PMS_P1;PMS_P2;Temp;Humidity;BMP_temperature;BMP_pressure;BME280_temperature;BME280_humidity;BME280_pressure;Samples;Min_cycle;Max_cycle;Signal;HPM_P1;HPM_P2
2024/02/29 00:00:41;;;;;;;0.00;0.00;;;;;;;10.68;78.69;99624.34;7362864;19;20003;-66
2024/02/29 00:03:08;;;;;;;0.10;0.10;;;;;;;10.65;78.21;99626.16;7363736;19;20014;-66
2024/02/29 00:05:35;;;;;;;0.17;0.17;;;;;;;10.63;78.75;99627.97;7358675;19;20010;-66
2024/02/29 00:08:01;;;;;;;0.10;0.10;;;;;;;10.62;78.72;99621.06;7364235;19;21462;-66
2024/02/29 00:10:27;;;;;;;0.10;0.10;;;;;;;10.60;78.20;99632.50;7359893;19;20979;-67
2024/02/29 00:12:52;;;;;;;0.10;0.10;;;;;;;10.57;77.99;99633.44;7361205;19;20200;-66
2024/02/29 00:15:17;;;;;;;0.10;0.10;;;;;;;10.53;77.86;99644.91;7359935;19;20007;-66
2024/02/29 00:17:43;;;;;;;0.10;0.10;;;;;;;10.50;77.73;99655.50;7353642;19;20622;-65
2024/02/29 00:20:09;;;;;;;0.10;0.10;;;;;;;10.46;77.75;99645.22;7358532;19;20755;-66
2024/02/29 00:22:35;;;;;;;0.10;0.10;;;;;;;10.41;77.97;99648.00;7361841;19;19998;-66
2024/02/29 00:25:00;;;;;;;0.10;0.10;;;;;;;10.38;77.88;99637.69;7363817;19;20823;-66
2024/02/29 00:27:26;;;;;;;0.10;0.10;;;;;;;10.34;78.26;99646.53;7359022;19;20033;-66
2024/02/29 00:29:51;;;;;;;0.10;0.10;;;;;;;10.30;78.20;99651.03;7360560;19;20033;-66
2024/02/29 00:32:17;;;;;;;0.10;0.10;;;;;;;10.26;77.95;99654.66;7362541;19;20019;-67
2024/02/29 00:34:42;;;;;;;0.10;0.10;;;;;;;10.24;78.21;99655.63;7364809;19;20021;-66
2024/02/29 00:37:08;;;;;;;0.10;0.10;;;;;;;10.19;78.50;99652.31;7360347;19;20486;-66
2024/02/29 00:39:33;;;;;;;0.10;0.10;;;;;;;10.18;78.04;99655.81;7363632;19;20035;-66
2024/02/29 00:41:58;;;;;;;0.10;0.10;;;;;;;10.11;78.58;99650.84;7359276;19;20010;-66
2024/02/29 00:44:24;;;;;;;0.10;0.10;;;;;;;10.11;77.76;99645.63;7364225;19;20947;-66
2024/02/29 00:46:49;;;;;;;0.10;0.10;;;;;;;10.09;77.54;99652.69;7355887;19;20010;-66
2024/02/29 00:49:15;;;;;;;0.10;0.10;;;;;;;10.06;77.26;99657.16;7362248;19;20043;-65
2024/02/29 00:51:41;;;;;;;0.10;0.10;;;;;;;10.02;77.36;99653.78;7352976;19;20043;-65
2024/02/29 00:54:06;;;;;;;0.10;0.10;;;;;;;9.98;77.34;99654.81;7360508;19;20015;-66
2024/02/29 00:56:32;;;;;;;0.10;0.10;;;;;;;9.91;77.38;99658.56;7362369;19;20018;-65
2024/02/29 00:58:57;;;;;;;0.10;0.10;;;;;;;9.91;77.08;99655.09;7360209;19;20459;-65
2024/02/29 01:01:22;;;;;;;0.10;0.10;;;;;;;9.84;76.93;99654.50;7359728;19;20014;-65
2024/02/29 01:03:48;;;;;;;0.10;0.10;;;;;;;9.77;77.29;99645.16;7360096;19;20021;-66
2024/02/29 01:06:13;;;;;;;0.10;0.10;;;;;;;9.73;77.36;99651.41;7360002;19;20002;-67
2024/02/29 01:08:38;;;;;;;0.10;0.10;;;;;;;9.52;77.10;99625.19;7359629;19;20048;-65
2024/02/29 01:11:04;;;;;;;0.10;0.10;;;;;;;9.66;77.27;99652.53;7363623;19;20002;-65
2024/02/29 01:13:30;;;;;;;0.10;0.10;;;;;;;9.62;77.14;99639.59;7362636;19;20014;-65
2024/02/29 01:15:56;;;;;;;0.10;0.10;;;;;;;9.52;77.03;99640.81;7357204;19;20786;-65
2024/02/29 01:18:21;;;;;;;0.10;0.10;;;;;;;9.39;77.36;99633.53;7355649;19;20041;-65
2024/02/29 01:20:47;;;;;;;0.10;0.10;;;;;;;9.52;77.51;99651.25;7361494;19;20013;-64
2024/02/29 01:23:12;;;;;;;0.10;0.10;;;;;;;9.47;77.57;99658.38;7360046;19;20038;-65
2024/02/29 01:25:38;;;;;;;0.00;0.00;;;;;;;9.38;77.47;99653.50;7361959;19;20363;-64
2024/02/29 01:28:03;;;;;;;0.10;0.10;;;;;;;9.40;77.89;99659.50;7358076;19;20007;-65
2024/02/29 01:30:28;;;;;;;0.10;0.10;;;;;;;9.35;77.49;99659.66;7361341;19;20022;-64
2024/02/29 01:32:54;;;;;;;0.08;0.08;;;;;;;9.37;77.66;99662.22;7359623;19;20019;-64
2024/02/29 01:35:20;;;;;;;0.10;0.10;;;;;;;9.33;77.69;99660.63;7358645;19;20091;-64
2024/02/29 01:37:45;;;;;;;0.10;0.10;;;;;;;9.28;77.66;99654.72;7362315;19;20089;-66
2024/02/29 01:40:11;;;;;;;0.00;0.00;;;;;;;9.27;77.46;99646.03;7360494;19;20010;-65
2024/02/29 01:42:41;;;;;;;0.00;0.00;;;;;;;9.24;77.78;99647.91;7359515;19;20010;-65
2024/02/29 01:45:07;;;;;;;0.10;0.10;;;;;;;9.25;77.93;99660.03;7359883;19;20027;-65
2024/02/29 01:47:32;;;;;;;0.00;0.00;;;;;;;9.03;77.75;99629.50;7358233;19;20011;-64
2024/02/29 01:50:03;;;;;;;0.00;0.00;;;;;;;9.21;77.99;99655.81;7359227;19;20022;-64
2024/02/29 01:52:30;;;;;;;0.00;0.00;;;;;;;9.20;77.82;99660.19;7357829;19;20011;-64
2024/02/29 01:54:56;;;;;;;;;;;;;;;9.21;77.41;99653.22;7361177;19;20166;-65
2024/02/29 01:57:22;;;;;;;0.05;0.05;;;;;;;9.11;77.43;99644.88;7359737;19;19998;-64
2024/02/29 01:59:49;;;;;;;0.08;0.08;;;;;;;9.14;77.73;99643.94;7359852;19;20018;-64
2024/02/29 02:02:15;;;;;;;0.10;0.10;;;;;;;9.11;77.89;99655.28;7357535;19;20013;-64
2024/02/29 02:04:40;;;;;;;0.10;0.10;;;;;;;9.08;77.83;99643.22;7353767;19;20019;-64
2024/02/29 02:07:06;;;;;;;0.10;0.10;;;;;;;9.00;77.72;99645.22;7360924;19;20013;-64
2024/02/29 02:09:32;;;;;;;0.10;0.10;;;;;;;9.04;77.90;99653.78;7361855;19;20028;-64
2024/02/29 02:11:57;;;;;;;0.10;0.10;;;;;;;9.01;77.81;99644.31;7359902;19;20090;-65
2024/02/29 02:14:23;;;;;;;0.10;0.10;;;;;;;8.98;77.77;99644.44;7362212;19;20007;-64
2024/02/29 02:16:49;;;;;;;0.05;0.05;;;;;;;8.97;78.35;99647.94;7361775;19;20017;-64
2024/02/29 02:19:16;;;;;;;0.10;0.10;;;;;;;8.95;78.43;99638.47;7362118;19;20043;-64
2024/02/29 02:21:43;;;;;;;0.10;0.10;;;;;;;8.93;78.49;99641.13;7365516;19;20021;-64
2024/02/29 02:24:08;;;;;;;0.10;0.10;;;;;;;8.92;77.84;99642.03;7365677;19;20602;-63
2024/02/29 02:26:34;;;;;;;0.05;0.05;;;;;;;8.90;77.75;99635.16;7370864;19;20078;-64
2024/02/29 02:29:03;;;;;;;0.10;0.10;;;;;;;8.88;77.62;99617.00;7369679;19;20037;-64
2024/02/29 02:31:29;;;;;;;0.10;0.10;;;;;;;8.85;77.77;99622.31;7366576;19;20047;-65
2024/02/29 02:33:55;;;;;;;0.00;0.00;;;;;;;8.87;77.40;99627.44;7369744;19;20007;-64
2024/02/29 02:36:21;;;;;;;0.00;0.00;;;;;;;8.79;77.69;99635.53;7369911;19;20640;-63
2024/02/29 02:38:46;;;;;;;0.08;0.08;;;;;;;8.81;77.50;99637.16;7362038;19;20010;-64
2024/02/29 02:41:11;;;;;;;0.10;0.10;;;;;;;8.80;78.17;99630.25;7370404;19;20089;-63
2024/02/29 02:43:37;;;;;;;0.10;0.10;;;;;;;8.78;78.06;99634.69;7369702;19;20526;-63
2024/02/29 02:46:03;;;;;;;0.10;0.10;;;;;;;8.78;77.91;99631.22;7367634;19;20034;-64
2024/02/29 02:48:28;;;;;;;0.00;0.00;;;;;;;8.75;77.91;99620.91;7369094;19;20010;-64
2024/02/29 02:50:54;;;;;;;0.10;0.10;;;;;;;8.73;78.21;99622.72;7366485;19;20362;-63
2024/02/29 02:53:19;;;;;;;0.10;0.10;;;;;;;8.69;78.09;99615.91;7366572;19;20078;-64
2024/02/29 02:55:44;;;;;;;0.10;0.10;;;;;;;8.70;78.05;99615.84;7368913;19;20778;-64
2024/02/29 02:58:10;;;;;;;0.00;0.00;;;;;;;8.68;78.10;99609.00;7362096;19;20015;-63
2024/02/29 03:00:35;;;;;;;0.08;0.08;;;;;;;8.66;77.86;99614.22;7368554;19;20190;-63
2024/02/29 03:03:01;;;;;;;0.10;0.10;;;;;;;8.65;78.01;99616.88;7366392;19;20013;-63
2024/02/29 03:05:27;;;;;;;0.10;0.10;;;;;;;8.62;77.87;99611.78;7367637;19;20017;-63
2024/02/29 03:07:52;;;;;;;0.00;0.00;;;;;;;8.61;77.84;99612.69;7365998;19;20014;-64
2024/02/29 03:10:18;;;;;;;0.10;0.10;;;;;;;8.58;78.29;99616.25;7369077;19;20007;-63
2024/02/29 03:12:43;;;;;;;0.00;0.00;;;;;;;8.56;78.16;99621.47;7367957;19;20464;-64
2024/02/29 03:15:09;;;;;;;0.10;0.10;;;;;;;8.55;78.01;99604.16;7364730;19;20022;-63
2024/02/29 03:17:35;;;;;;;0.00;0.00;;;;;;;8.53;77.80;99605.97;7367923;19;20006;-63
2024/02/29 03:20:00;;;;;;;0.00;0.00;;;;;;;8.35;78.02;99570.09;7364405;19;20006;-64
2024/02/29 03:22:26;;;;;;;0.10;0.10;;;;;;;8.48;77.90;99605.28;7360202;19;20014;-64
2024/02/29 03:24:52;;;;;;;0.10;0.10;;;;;;;8.46;77.75;99607.06;7367566;19;20010;-63
2024/02/29 03:27:18;;;;;;;0.00;0.00;;;;;;;8.44;78.17;99611.47;7366920;19;20015;-63
2024/02/29 03:29:43;;;;;;;0.10;0.10;;;;;;;8.42;78.21;99596.81;7364314;19;20026;-63
2024/02/29 03:32:10;;;;;;;0.10;0.10;;;;;;;8.39;78.04;99608.16;7365007;19;20021;-64
2024/02/29 03:34:36;;;;;;;0.10;0.10;;;;;;;8.37;78.07;99599.56;7366797;19;20023;-63
2024/02/29 03:37:01;;;;;;;0.00;0.00;;;;;;;8.36;78.53;99602.16;7365684;19;20026;-62
2024/02/29 03:39:27;;;;;;;0.10;0.10;;;;;;;8.33;78.41;99603.13;7365909;19;20250;-63
2024/02/29 03:41:52;;;;;;;0.10;0.10;;;;;;;8.31;77.99;99600.59;7369103;19;20017;-64
2024/02/29 03:44:17;;;;;;;0.10;0.10;;;;;;;8.30;78.40;99605.81;7365016;19;20018;-63
2024/02/29 03:46:43;;;;;;;0.10;0.10;;;;;;;8.28;77.79;99605.00;7361477;19;20122;-63
2024/02/29 03:49:08;;;;;;;0.10;0.10;;;;;;;8.26;78.20;99601.59;7366678;19;20051;-63
2024/02/29 03:51:34;;;;;;;0.10;0.10;;;;;;;8.14;78.13;99581.19;7366081;19;20007;-63
2024/02/29 03:53:59;;;;;;;0.10;0.10;;;;;;;8.23;78.04;99601.72;7364619;19;20014;-63
2024/02/29 03:56:25;;;;;;;0.05;0.05;;;;;;;8.19;78.14;99606.13;7356061;19;20459;-64
2024/02/29 03:58:50;;;;;;;0.10;0.10;;;;;;;8.17;77.76;99597.53;7356758;19;20007;-63
2024/02/29 04:01:16;;;;;;;0.10;0.10;;;;;;;8.15;77.89;99598.47;7366205;19;20676;-63
2024/02/29 04:03:41;;;;;;;0.10;0.10;;;;;;;7.94;78.06;99560.97;7363689;19;20013;-63
2024/02/29 04:06:07;;;;;;;0.05;0.05;;;;;;;8.12;77.73;99593.38;7366073;19;20010;-64
2024/02/29 04:08:33;;;;;;;0.10;0.10;;;;;;;7.96;77.88;99578.25;7367564;19;20017;-62
2024/02/29 04:10:58;;;;;;;0.00;0.00;;;;;;;8.09;78.05;99593.47;7365510;19;20034;-63
2024/02/29 04:13:24;;;;;;;0.08;0.08;;;;;;;8.03;78.40;99600.56;7365263;19;20007;-63
2024/02/29 04:15:50;;;;;;;0.10;0.10;;;;;;;8.02;78.42;99596.25;7367307;19;20013;-62
2024/02/29 04:18:16;;;;;;;0.00;0.00;;;;;;;8.00;78.51;99589.38;7333819;19;22158;-63
2024/02/29 04:20:41;;;;;;;0.03;0.03;;;;;;;7.99;78.41;99587.69;7367642;19;20048;-63
2024/02/29 04:23:07;;;;;;;0.10;0.10;;;;;;;7.97;78.65;99590.34;7364231;19;20466;-63
2024/02/29 04:25:32;;;;;;;0.10;0.10;;;;;;;7.95;78.21;99592.13;7364561;19;20015;-63
2024/02/29 04:27:57;;;;;;;0.10;0.10;;;;;;;7.95;78.02;99597.31;7363004;19;20126;-63
2024/02/29 04:30:23;;;;;;;0.10;0.10;;;;;;;7.93;78.26;99601.72;7365764;19;20019;-63
2024/02/29 04:32:48;;;;;;;0.08;0.08;;;;;;;7.91;78.10;99598.34;7363304;19;20025;-62
2024/02/29 04:35:14;;;;;;;0.00;0.00;;;;;;;7.81;78.13;99578.72;7365316;19;20014;-62
2024/02/29 04:37:39;;;;;;;0.10;0.10;;;;;;;7.88;77.92;99605.34;7365201;19;20014;-63
2024/02/29 04:40:07;;;;;;;0.10;0.10;;;;;;;7.84;78.34;99596.78;7364385;19;20014;-63
2024/02/29 04:42:32;;;;;;;;;;;;;;;7.89;77.14;99597.50;7349646;19;20802;-62
2024/02/29 04:44:58;;;;;;;0.10;0.10;;;;;;;7.83;77.47;99597.69;7367450;19;19918;-63
2024/02/29 04:47:24;;;;;;;0.10;0.10;;;;;;;7.81;77.77;99604.69;7360708;19;20007;-63
2024/02/29 04:49:49;;;;;;;0.10;0.10;;;;;;;7.49;77.51;99562.28;7366072;19;20011;-63
2024/02/29 04:52:14;;;;;;;0.00;0.00;;;;;;;7.76;77.86;99601.38;7353575;19;21913;-62
2024/02/29 04:54:40;;;;;;;0.10;0.10;;;;;;;7.74;77.96;99603.16;7362682;19;20014;-63
2024/02/29 04:57:06;;;;;;;0.10;0.10;;;;;;;7.72;78.17;99610.16;7365594;19;20011;-63
2024/02/29 04:59:32;;;;;;;0.10;0.10;;;;;;;7.70;78.19;99615.38;7365448;19;20014;-63
2024/02/29 05:01:57;;;;;;;0.10;0.10;;;;;;;7.68;78.06;99611.13;7361043;19;20011;-62
2024/02/29 05:04:23;;;;;;;0.00;0.00;;;;;;;7.66;77.97;99611.19;7362287;19;20479;-62
2024/02/29 05:06:49;;;;;;;0.00;0.00;;;;;;;7.64;78.33;99620.75;7360817;19;20010;-62
2024/02/29 05:09:14;;;;;;;0.10;0.10;;;;;;;7.63;78.17;99618.19;7365984;19;20019;-63
2024/02/29 05:11:40;;;;;;;0.10;0.10;;;;;;;7.62;78.54;99619.09;7363030;19;20023;-62
2024/02/29 05:14:05;;;;;;;0.10;0.10;;;;;;;7.60;77.90;99606.13;7364359;19;20011;-62
2024/02/29 05:16:31;;;;;;;0.00;0.00;;;;;;;7.57;78.29;99607.97;7359324;19;20026;-63
2024/02/29 05:18:56;;;;;;;0.10;0.10;;;;;;;7.57;78.11;99608.84;7362329;19;20007;-62
2024/02/29 05:21:22;;;;;;;0.10;0.10;;;;;;;7.57;77.79;99613.19;7364947;19;20039;-63
2024/02/29 05:23:47;;;;;;;0.10;0.10;;;;;;;7.53;77.70;99610.66;7357112;19;20441;-63
2024/02/29 05:26:13;;;;;;;0.00;0.00;;;;;;;7.51;78.20;99604.66;7358894;19;20014;-62
2024/02/29 05:28:38;;;;;;;0.10;0.10;;;;;;;7.47;77.67;99600.44;7363224;19;20011;-63
2024/02/29 05:31:04;;;;;;;0.10;0.10;;;;;;;7.48;77.98;99601.28;7364723;19;20014;-63
2024/02/29 05:33:29;;;;;;;0.10;0.10;;;;;;;7.46;78.10;99592.69;7363120;19;20022;-62
2024/02/29 05:35:55;;;;;;;0.10;0.10;;;;;;;7.43;77.69;99588.44;7364456;19;20036;-61
2024/02/29 05:38:20;;;;;;;0.10;0.10;;;;;;;7.42;77.88;99586.72;7355351;19;20015;-62
2024/02/29 05:40:47;;;;;;;0.10;0.10;;;;;;;7.40;77.92;99585.06;7364637;19;20036;-63
2024/02/29 05:43:14;;;;;;;0.10;0.10;;;;;;;7.38;77.60;99582.50;7363723;19;20007;-62
2024/02/29 05:45:40;;;;;;;0.10;0.10;;;;;;;7.37;77.67;99586.00;7363898;19;20018;-62
2024/02/29 05:48:06;;;;;;;0.10;0.10;;;;;;;7.35;78.13;99580.00;7369216;19;20057;-62
2024/02/29 05:50:31;;;;;;;0.10;0.10;;;;;;;7.34;77.49;99583.47;7372819;19;20505;-62
2024/02/29 05:52:58;;;;;;;0.00;0.00;;;;;;;7.32;77.06;99580.09;7361803;19;20017;-62
2024/02/29 05:55:24;;;;;;;0.10;0.10;;;;;;;7.28;77.49;99568.06;7371177;19;20711;-63
2024/02/29 05:57:49;;;;;;;0.00;0.00;;;;;;;7.24;77.74;99558.66;7367723;19;20025;-62
2024/02/29 06:00:17;;;;;;;0.10;0.10;;;;;;;7.27;77.36;99571.56;7371078;19;20075;-62
2024/02/29 06:02:43;;;;;;;0.10;0.10;;;;;;;7.25;77.26;99565.56;7367458;19;20019;-62
2024/02/29 06:05:09;;;;;;;0.00;0.00;;;;;;;7.23;77.63;99570.78;7365592;19;20671;-62
2024/02/29 06:07:36;;;;;;;0.10;0.10;;;;;;;7.22;77.68;99573.44;7370116;19;20011;-62
2024/02/29 06:10:09;;;;;;;0.10;0.10;;;;;;;7.21;77.86;99579.53;7370735;19;20015;-62
2024/02/29 06:12:35;;;;;;;0.10;0.10;;;;;;;7.19;77.67;99578.69;7369266;19;20014;-62
2024/02/29 06:15:01;;;;;;;0.00;0.00;;;;;;;7.18;77.41;99577.00;7371237;19;20870;-62
2024/02/29 06:17:26;;;;;;;0.10;0.10;;;;;;;7.18;77.37;99579.59;7368118;19;20039;-62
2024/02/29 06:19:52;;;;;;;0.00;0.00;;;;;;;7.17;77.62;99575.31;7370319;19;20010;-62
2024/02/29 06:22:19;;;;;;;0.10;0.10;;;;;;;7.16;77.51;99571.00;7367825;19;20018;-62
2024/02/29 06:24:44;;;;;;;0.10;0.10;;;;;;;7.14;77.57;99565.00;7368378;19;20016;-62
2024/02/29 06:27:10;;;;;;;0.10;0.10;;;;;;;7.14;78.06;99565.00;7367653;19;20026;-62
2024/02/29 06:29:35;;;;;;;0.10;0.10;;;;;;;7.16;78.07;99573.59;7369115;19;20094;-61
2024/02/29 06:32:01;;;;;;;0.00;0.00;;;;;;;7.17;78.13;99559.72;7369155;19;20024;-62
2024/02/29 06:34:27;;;;;;;0.10;0.10;;;;;;;7.17;77.98;99570.13;7370285;19;20371;-62
2024/02/29 06:36:53;;;;;;;0.00;0.00;;;;;;;7.18;78.00;99571.81;7369748;19;20528;-62
2024/02/29 06:39:19;;;;;;;0.10;0.10;;;;;;;7.18;77.91;99579.59;7365671;19;20015;-62
2024/02/29 06:41:44;;;;;;;0.10;0.10;;;;;;;7.21;77.95;99584.72;7368970;19;20018;-62
2024/02/29 06:44:10;;;;;;;0.10;0.10;;;;;;;7.21;77.99;99582.13;7365946;19;20011;-62
2024/02/29 06:46:35;;;;;;;0.10;0.10;;;;;;;7.22;78.01;99578.63;7369499;19;20010;-62
2024/02/29 06:49:02;;;;;;;0.10;0.10;;;;;;;7.23;78.23;99588.13;7370899;19;20797;-62
2024/02/29 06:51:27;;;;;;;0.10;0.10;;;;;;;7.23;77.96;99586.38;7367657;19;20500;-62
2024/02/29 06:53:54;;;;;;;0.00;0.00;;;;;;;7.17;77.78;99570.13;7363440;19;20010;-62
2024/02/29 06:56:19;;;;;;;0.10;0.10;;;;;;;7.25;78.05;99588.94;7368819;19;20015;-62
2024/02/29 06:58:45;;;;;;;0.10;0.10;;;;;;;7.26;77.94;99588.06;7360616;19;20029;-62
2024/02/29 07:01:13;;;;;;;0.10;0.10;;;;;;;7.16;78.04;99578.81;7367897;19;20467;-62
2024/02/29 07:03:38;;;;;;;0.10;0.10;;;;;;;7.27;78.32;99594.94;7368883;19;20011;-62
2024/02/29 07:06:04;;;;;;;0.10;0.10;;;;;;;7.28;78.04;99594.03;7368276;19;20345;-61
2024/02/29 07:08:34;;;;;;;0.10;0.10;;;;;;;7.29;78.28;99601.78;7368728;19;20014;-62
2024/02/29 07:11:00;;;;;;;0.10;0.10;;;;;;;7.29;77.98;99606.13;7366713;19;20023;-63
2024/02/29 07:13:25;;;;;;;0.10;0.10;;;;;;;7.29;78.04;99606.13;7366411;19;20487;-62
2024/02/29 07:15:51;;;;;;;0.10;0.10;;;;;;;7.29;78.51;99606.13;7361533;19;20049;-62
2024/02/29 07:18:16;;;;;;;0.00;0.00;;;;;;;7.27;78.23;99608.78;7365933;19;20506;-62
2024/02/29 07:20:42;;;;;;;0.10;0.10;;;;;;;7.30;78.54;99610.44;7365785;19;20007;-62
2024/02/29 07:23:09;;;;;;;0.03;0.03;;;;;;;7.30;78.58;99607.84;7363759;19;20023;-62
2024/02/29 07:25:35;;;;;;;;;;;;;;;7.34;77.95;99604.25;7369140;19;20010;-61
2024/02/29 07:28:00;;;;;;;0.03;0.03;;;;;;;7.32;78.20;99600.00;7365547;19;20647;-62
2024/02/29 07:30:27;;;;;;;0.10;0.10;;;;;;;7.31;78.11;99593.97;7367726;19;20019;-62
2024/02/29 07:32:52;;;;;;;0.10;0.10;;;;;;;7.30;78.25;99592.28;7365854;19;20035;-62
2024/02/29 07:35:18;;;;;;;0.10;0.10;;;;;;;7.30;78.05;99592.28;7367520;19;20010;-62
2024/02/29 07:37:44;;;;;;;0.10;0.10;;;;;;;7.28;78.08;99588.84;7369991;19;20010;-62
2024/02/29 07:40:10;;;;;;;0.10;0.10;;;;;;;7.28;78.10;99594.03;7367516;19;20011;-61
2024/02/29 07:42:37;;;;;;;0.10;0.10;;;;;;;7.27;78.00;99588.00;7364512;19;20090;-62
2024/02/29 07:45:05;;;;;;;0.00;0.00;;;;;;;7.18;77.96;99561.44;7365966;19;20011;-62
2024/02/29 07:47:31;;;;;;;0.10;0.10;;;;;;;7.27;77.91;99584.56;7363505;19;20035;-62
2024/02/29 07:49:56;;;;;;;0.10;0.10;;;;;;;7.26;77.94;99569.88;7363781;19;20570;-62
2024/02/29 07:52:21;;;;;;;0.08;0.08;;;;;;;7.27;77.79;99571.56;7364918;19;20013;-62
2024/02/29 07:54:48;;;;;;;0.10;0.10;;;;;;;7.27;77.96;99576.75;7364114;19;20030;-62
2024/02/29 07:57:13;;;;;;;0.10;0.10;;;;;;;7.28;78.12;99573.25;7366268;19;20070;-61
2024/02/29 07:59:39;;;;;;;0.10;0.10;;;;;;;7.26;78.23;99581.09;7363157;19;20090;-62
2024/02/29 08:02:04;;;;;;;0.10;0.10;;;;;;;7.26;77.62;99581.09;7364900;19;20013;-62
2024/02/29 08:04:30;;;;;;;0.10;0.10;;;;;;;7.26;78.25;99575.91;7363822;19;20436;-62
2024/02/29 08:06:55;;;;;;;0.10;0.10;;;;;;;7.26;77.95;99580.25;7360373;19;20455;-62
2024/02/29 08:09:23;;;;;;;0.10;0.10;;;;;;;7.26;77.61;99581.09;7362120;19;20015;-62
2024/02/29 08:11:49;;;;;;;0.00;0.00;;;;;;;7.26;77.97;99575.06;7363397;19;20014;-63
2024/02/29 08:14:14;;;;;;;0.10;0.10;;;;;;;7.27;77.81;99572.41;7363334;19;20022;-61
2024/02/29 08:16:39;;;;;;;0.03;0.03;;;;;;;7.27;77.46;99579.34;7354824;19;20101;-62
2024/02/29 08:19:06;;;;;;;0.10;0.10;;;;;;;7.26;77.81;99580.25;7364680;19;20400;-62
2024/02/29 08:21:32;;;;;;;0.10;0.10;;;;;;;7.21;77.99;99572.59;7359901;19;20022;-62
2024/02/29 08:23:58;;;;;;;0.10;0.10;;;;;;;7.27;77.98;99572.41;7367380;19;20014;-62
2024/02/29 08:26:23;;;;;;;0.10;0.10;;;;;;;7.27;77.77;99587.16;7365500;19;20039;-61
2024/02/29 08:28:49;;;;;;;0.10;0.10;;;;;;;7.25;77.99;99583.75;7364803;19;20011;-62
2024/02/29 08:31:15;;;;;;;0.10;0.10;;;;;;;7.28;77.72;99596.63;7362796;19;20014;-62
2024/02/29 08:33:41;;;;;;;0.10;0.10;;;;;;;7.28;77.55;99604.44;7363995;19;20018;-61
2024/02/29 08:36:06;;;;;;;0.00;0.00;;;;;;;7.30;78.06;99615.66;7360744;19;20014;-62
2024/02/29 08:38:33;;;;;;;0.10;0.10;;;;;;;7.31;77.77;99614.75;7329571;19;20014;-61
2024/02/29 08:40:59;;;;;;;0.10;0.10;;;;;;;7.35;77.97;99611.19;7367820;19;20021;-61
2024/02/29 08:43:24;;;;;;;0.10;0.10;;;;;;;7.37;78.03;99614.56;7358228;19;20003;-62
2024/02/29 08:45:51;;;;;;;0.10;0.10;;;;;;;7.40;78.23;99616.22;7366140;19;20002;-62
2024/02/29 08:48:17;;;;;;;0.00;0.00;;;;;;;7.47;77.82;99618.63;7362819;19;20074;-61
2024/02/29 08:50:42;;;;;;;0.00;0.00;;;;;;;7.53;78.11;99625.41;7364588;19;20450;-62
2024/02/29 08:53:08;;;;;;;0.10;0.10;;;;;;;7.59;77.73;99620.03;7358148;19;20817;-62
2024/02/29 08:55:33;;;;;;;0.05;0.05;;;;;;;7.51;77.91;99602.06;7366003;19;20070;-62
2024/02/29 08:57:59;;;;;;;0.10;0.10;;;;;;;7.68;77.83;99627.56;7366019;19;20082;-63
2024/02/29 09:00:24;;;;;;;0.10;0.10;;;;;;;7.72;78.19;99620.53;7358567;19;20038;-61
2024/02/29 09:02:50;;;;;;;0.10;0.10;;;;;;;7.75;78.38;99615.25;7365750;19;20407;-62
2024/02/29 09:05:15;;;;;;;0.10;0.10;;;;;;;7.78;78.16;99613.41;7359973;19;20011;-61
2024/02/29 09:07:40;;;;;;;0.10;0.10;;;;;;;7.83;77.88;99621.09;7362812;19;20011;-62
2024/02/29 09:10:06;;;;;;;0.00;0.00;;;;;;;7.89;77.89;99618.31;7358600;19;20010;-62
2024/02/29 09:12:32;;;;;;;0.10;0.10;;;;;;;7.97;78.35;99611.16;7361590;19;20027;-61
2024/02/29 09:14:57;;;;;;;0.10;0.10;;;;;;;8.04;77.94;99610.06;7362130;19;20014;-62
2024/02/29 09:17:23;;;;;;;0.10;0.10;;;;;;;8.13;78.16;99618.47;7364751;19;20011;-62
2024/02/29 09:19:48;;;;;;;0.10;0.10;;;;;;;8.14;77.93;99607.19;7358625;19;20059;-62
2024/02/29 09:22:13;;;;;;;0.00;0.00;;;;;;;8.24;77.80;99619.84;7369663;19;20022;-62
2024/02/29 09:24:39;;;;;;;0.10;0.10;;;;;;;8.34;78.13;99615.22;7370033;19;20018;-61
2024/02/29 09:27:04;;;;;;;0.10;0.10;;;;;;;8.42;78.02;99618.47;7371379;19;20025;-62
2024/02/29 09:29:30;;;;;;;0.00;0.00;;;;;;;8.54;78.48;99607.69;7368117;19;20014;-62
2024/02/29 09:31:56;;;;;;;0.05;0.05;;;;;;;8.64;77.57;99608.25;7369020;19;20475;-62
2024/02/29 09:34:21;;;;;;;0.00;0.00;;;;;;;8.74;77.55;99625.25;7370520;19;20596;-61
2024/02/29 09:36:46;;;;;;;0.10;0.10;;;;;;;8.84;77.48;99610.19;7368338;19;20043;-62
2024/02/29 09:39:12;;;;;;;0.10;0.10;;;;;;;9.01;78.33;99597.44;7369062;19;20002;-62
2024/02/29 09:41:37;;;;;;;0.10;0.10;;;;;;;9.09;77.93;99592.00;7369549;19;20010;-62
2024/02/29 09:44:04;;;;;;;0.00;0.00;;;;;;;9.13;76.91;99592.75;7370060;19;20511;-62
2024/02/29 09:46:30;;;;;;;0.10;0.10;;;;;;;9.18;76.98;99598.66;7368204;19;20622;-62
2024/02/29 09:48:55;;;;;;;0.10;0.10;;;;;;;9.12;77.73;99567.56;7366849;19;20007;-62
2024/02/29 09:51:21;;;;;;;0.05;0.05;;;;;;;9.38;77.34;99593.59;7370115;19;20014;-62
2024/02/29 09:53:52;;;;;;;0.00;0.00;;;;;;;9.61;77.73;99593.59;7367236;19;20446;-62
2024/02/29 09:56:22;;;;;;;0.10;0.10;;;;;;;9.83;77.38;99588.47;7369695;19;20516;-62
2024/02/29 09:58:52;;;;;;;0.10;0.10;;;;;;;10.07;77.13;99585.81;7370827;19;20899;-62
2024/02/29 10:01:17;;;;;;;0.00;0.00;;;;;;;10.26;76.71;99571.19;7369916;19;20018;-62
2024/02/29 10:03:43;;;;;;;0.10;0.10;;;;;;;10.48;76.16;99568.56;7368495;19;20478;-63
2024/02/29 10:06:11;;;;;;;0.10;0.10;;;;;;;10.68;74.80;99572.13;7371575;19;20019;-62
2024/02/29 10:08:38;;;;;;;;;;;;;;;10.98;77.84;99570.84;7360926;19;20351;-62
2024/02/29 10:11:03;;;;;;;0.10;0.10;;;;;;;11.13;74.66;99577.16;7359273;19;19989;-63
2024/02/29 10:13:40;;;;;;;0.10;0.10;;;;;;;11.41;74.60;99574.22;7364720;19;20707;-62
2024/02/29 10:16:08;;;;;;;0.10;0.10;;;;;;;11.51;73.80;99558.97;7371751;19;20018;-62
2024/02/29 10:18:35;;;;;;;0.10;0.10;;;;;;;11.75;72.62;99562.22;7366774;19;20019;-63
2024/02/29 10:21:02;;;;;;;0.10;0.10;;;;;;;11.93;72.51;99562.28;7370951;19;20041;-63
2024/02/29 10:23:29;;;;;;;0.10;0.10;;;;;;;12.22;72.82;99561.84;7367201;19;20439;-63
2024/02/29 10:25:55;;;;;;;0.10;0.10;;;;;;;12.41;72.25;99557.38;7370070;19;20033;-62
2024/02/29 10:28:20;;;;;;;0.10;0.10;;;;;;;12.66;71.57;99573.59;7365446;19;20101;-62
2024/02/29 10:30:51;;;;;;;0.10;0.10;;;;;;;12.90;70.21;99581.19;7366601;19;20082;-62
2024/02/29 10:33:17;;;;;;;0.10;0.10;;;;;;;13.03;69.58;99560.44;7363272;19;20014;-62
2024/02/29 10:35:43;;;;;;;0.10;0.10;;;;;;;13.17;68.39;99571.91;7368264;19;20046;-63
2024/02/29 10:38:09;;;;;;;0.10;0.10;;;;;;;13.36;68.67;99563.13;7367925;19;20039;-62
2024/02/29 10:40:34;;;;;;;0.10;0.10;;;;;;;13.48;67.29;99565.09;7367474;19;20485;-62
2024/02/29 10:43:02;;;;;;;0.10;0.10;;;;;;;13.55;67.87;99558.63;7340604;19;20037;-62
2024/02/29 10:45:29;;;;;;;0.10;0.10;;;;;;;13.53;68.03;99557.81;7366101;19;20017;-63
2024/02/29 10:48:02;;;;;;;0.10;0.10;;;;;;;13.63;68.99;99559.03;7369367;19;20010;-63
2024/02/29 10:50:32;;;;;;;0.10;0.10;;;;;;;13.70;67.57;99552.53;7365692;19;20748;-64
2024/02/29 10:53:07;;;;;;;0.10;0.10;;;;;;;13.87;69.33;99549.00;7367085;19;20022;-62
2024/02/29 10:55:42;;;;;;;0.20;0.20;;;;;;;13.98;66.89;99537.91;7369415;19;20502;-63
2024/02/29 10:58:22;;;;;;;0.10;0.10;;;;;;;14.14;67.11;99545.78;7369115;19;20502;-62
2024/02/29 11:00:48;;;;;;;0.10;0.10;;;;;;;14.17;64.17;99543.84;7366817;19;20003;-63
2024/02/29 11:03:15;;;;;;;0.10;0.10;;;;;;;14.28;63.56;99533.56;7365988;19;20971;-63
2024/02/29 11:05:42;;;;;;;0.10;0.10;;;;;;;14.39;63.40;99530.31;7367180;19;20007;-62
2024/02/29 11:08:08;;;;;;;0.10;0.10;;;;;;;14.49;63.82;99535.94;7363514;19;20015;-62
2024/02/29 11:10:33;;;;;;;0.10;0.10;;;;;;;14.65;63.23;99531.50;7365011;19;20010;-63
2024/02/29 11:13:03;;;;;;;0.10;0.10;;;;;;;14.91;62.86;99558.06;7365901;19;20042;-62
2024/02/29 11:15:28;;;;;;;0.10;0.10;;;;;;;15.01;61.35;99548.69;7367829;19;20507;-62
2024/02/29 11:17:54;;;;;;;0.05;0.05;;;;;;;15.14;60.77;99548.78;7368211;19;20010;-63
2024/02/29 11:20:20;;;;;;;0.10;0.10;;;;;;;15.23;60.78;99543.81;7364844;19;20054;-62
2024/02/29 11:22:47;;;;;;;0.10;0.10;;;;;;;15.23;59.94;99543.81;7365997;19;20010;-62
2024/02/29 11:25:19;;;;;;;0.10;0.10;;;;;;;15.25;62.12;99538.47;7368678;19;20026;-63
2024/02/29 11:27:50;;;;;;;0.10;0.10;;;;;;;15.16;61.14;99542.50;7362941;19;20045;-62
2024/02/29 11:30:21;;;;;;;0.10;0.10;;;;;;;15.11;60.04;99528.78;7367504;19;20483;-62
2024/02/29 11:32:47;;;;;;;0.10;0.10;;;;;;;15.08;60.01;99531.59;7362745;19;20439;-63
2024/02/29 11:35:14;;;;;;;0.10;0.10;;;;;;;15.12;59.80;99527.00;7367557;19;20006;-62